ADDS METAR Data INFO
IDs: Format: Raw Decoded Include TAF

Data at: 2315 UTC 15 Jul 2018

KPVF 152255Z AUTO 23005KT 10SM CLR 33/10 A3004 RMK AO1
KPVF 152235Z AUTO 22005KT 10SM CLR 33/10 A3004 RMK AO1
KPVF 152215Z AUTO 23006KT 10SM CLR 33/10 A3004 RMK AO1
KPVF 152155Z AUTO 22005KT 10SM CLR 33/10 A3005 RMK AO1
KPVF 152135Z AUTO 23006KT 10SM CLR 33/10 A3005 RMK AO1
KPVF 152115Z AUTO 26007KT 10SM CLR 33/11 A3006 RMK AO1
KPVF 152055Z AUTO 22005KT 10SM CLR 33/12 A3006 RMK AO1
KPVF 152035Z AUTO 22006KT 10SM CLR 33/11 A3006 RMK AO1
KPVF 152015Z AUTO 24006KT 220V290 10SM CLR 32/11 A3006 RMK AO1
KPVF 151955Z AUTO 27007KT 220V310 10SM CLR 32/11 A3006 RMK AO1
KPVF 151935Z AUTO 25007KT 10SM CLR 32/12 A3005 RMK AO1
KPVF 151915Z AUTO 25004KT 10SM CLR 32/12 A3005 RMK AO1
KPVF 151855Z AUTO 25006KT 10SM CLR 32/13 A3006 RMK AO1
KPVF 151835Z AUTO 23004KT 10SM CLR 32/14 A3006 RMK AO1
KPVF 151815Z AUTO 22006KT 10SM CLR 31/14 A3006 RMK AO1
KPVF 151755Z AUTO 23006KT 10SM CLR 32/14 A3005 RMK AO1
KPVF 151735Z AUTO 23005KT 10SM CLR 31/15 A3005 RMK AO1
KPVF 151715Z AUTO 19005KT 10SM CLR 31/15 A3005 RMK AO1
KPVF 151655Z AUTO 21004KT 10SM CLR 30/15 A3005 RMK AO1
KPVF 151635Z AUTO 16003KT 10SM CLR 30/15 A3005 RMK AO1
KPVF 151615Z AUTO 12004KT 10SM CLR 29/14 A3006 RMK AO1
KPVF 151555Z AUTO 13004KT 10SM CLR 29/15 A3006 RMK AO1
KPVF 151535Z AUTO 12004KT 10SM CLR 28/15 A3006 RMK AO1
KPVF 151515Z AUTO 11005KT 10SM CLR 27/15 A3006 RMK AO1
KPVF 151455Z AUTO 11005KT 10SM CLR 26/14 A3005 RMK AO1
KPVF 151435Z AUTO 10005KT 10SM CLR 26/13 A3005 RMK AO1
KPVF 151415Z AUTO 10006KT 10SM CLR 24/13 A3005 RMK AO1
KPVF 151355Z AUTO 10005KT 10SM CLR 25/13 A3004 RMK AO1
KPVF 151335Z AUTO 10006KT 10SM CLR 24/13 A3004 RMK AO1
KPVF 151315Z AUTO 11005KT 10SM CLR 24/13 A3004 RMK AO1
KPVF 151255Z AUTO 10005KT 10SM FEW095 24/13 A3004 RMK AO1
KPVF 151235Z AUTO 11005KT 10SM BKN095 24/13 A3003 RMK AO1
KPVF 151215Z AUTO 10006KT 10SM OVC095 24/13 A3003 RMK AO1
KPVF 151155Z AUTO 11006KT 10SM OVC095 24/13 A3003 RMK AO1
KPVF 151135Z AUTO 10005KT 10SM OVC095 24/13 A3003 RMK AO1
KPVF 151115Z AUTO 09005KT 10SM OVC095 25/13 A3003 RMK AO1
KPVF 151055Z AUTO 09005KT 10SM OVC095 25/13 A3003 RMK AO1
KPVF 151035Z AUTO 10005KT 10SM OVC095 25/13 A3003 RMK AO1
KPVF 151015Z AUTO 10006KT 10SM BKN095 24/14 A3004 RMK AO1
KPVF 150955Z AUTO 10006KT 10SM CLR 25/13 A3004 RMK AO1
KPVF 150935Z AUTO 10005KT 10SM CLR 25/13 A3004 RMK AO1
KPVF 150915Z AUTO 11005KT 10SM CLR 24/13 A3005 RMK AO1
KPVF 150855Z AUTO 11005KT 10SM CLR 24/13 A3005 RMK AO1
KPVF 150835Z AUTO 10005KT 10SM CLR 24/14 A3005 RMK AO1
KPVF 150815Z AUTO 10006KT 10SM CLR 24/13 A3005 RMK AO1
KPVF 150755Z AUTO 10005KT 10SM CLR 25/13 A3005 RMK AO1
KPVF 150735Z AUTO 11003KT 10SM CLR 25/13 A3005 RMK AO1
KPVF 150715Z AUTO 00000KT 10SM CLR 26/13 A3005 RMK AO1
KPVF 150655Z AUTO 11004KT 10SM CLR 25/13 A3005 RMK AO1
KPVF 150635Z AUTO 10005KT 10SM CLR 25/13 A3006 RMK AO1
KPVF 150615Z AUTO 10005KT 10SM CLR 25/13 A3006 RMK AO1
KPVF 150555Z AUTO 10006KT 10SM CLR 24/14 A3006 RMK AO1
KPVF 150535Z AUTO 11005KT 10SM CLR 25/14 A3007 RMK AO1
KPVF 150515Z AUTO 12004KT 10SM CLR 25/13 A3007 RMK AO1
KPVF 150455Z AUTO 14004KT 10SM CLR 25/14 A3007 RMK AO1
KPVF 150435Z AUTO 14004KT 10SM CLR 25/14 A3006 RMK AO1
KPVF 150415Z AUTO 17003KT 10SM CLR 26/13 A3005 RMK AO1
KPVF 150355Z AUTO 16003KT 10SM CLR 26/13 A3005 RMK AO1
KPVF 150335Z AUTO 20003KT 10SM CLR 27/13 A3005 RMK AO1
KPVF 150315Z AUTO 20003KT 10SM CLR 27/13 A3005 RMK AO1
KPVF 150255Z AUTO 23004KT 10SM CLR 28/13 A3005 RMK AO1
KPVF 150235Z AUTO 24004KT 10SM CLR 29/13 A3005 RMK AO1
KPVF 150215Z AUTO 23006KT 10SM CLR 30/13 A3005 RMK AO1
KPVF 150155Z AUTO 23006KT 10SM CLR 30/13 A3005 RMK AO1
KPVF 150135Z AUTO 20005KT 10SM CLR 31/13 A3004 RMK AO1
KPVF 150115Z AUTO 23003KT 10SM CLR 32/12 A3004 RMK AO1
KPVF 150055Z AUTO 28005KT 10SM CLR 33/10 A3005 RMK AO1
KPVF 150035Z AUTO 28007KT 10SM CLR 33/10 A3005 RMK AO1
KPVF 150015Z AUTO 25006KT 10SM CLR 33/10 A3005 RMK AO1
KPVF 142355Z AUTO 27009KT 10SM CLR 33/10 A3005 RMK AO1
KPVF 142335Z AUTO 30006KT 10SM CLR 33/10 A3006 RMK AO1
KPVF 142315Z AUTO 29005KT 10SM CLR 33/10 A3006 RMK AO1
KPVF 142255Z AUTO 29007KT 10SM CLR 33/10 A3007 RMK AO1
KPVF 142235Z AUTO 31005KT 10SM CLR 33/09 A3007 RMK AO1
KPVF 142215Z AUTO 30004KT 10SM CLR 33/10 A3007 RMK AO1
KPVF 142155Z AUTO 29006KT 250V320 10SM CLR 32/09 A3007 RMK AO1
KPVF 142135Z AUTO 34004KT 10SM CLR 32/10 A3008 RMK AO1
KPVF 142115Z AUTO 30005KT 10SM CLR 32/11 A3009 RMK AO1
KPVF 142055Z AUTO 32006KT 260V350 10SM CLR 32/12 A3009 RMK AO1
KPVF 142035Z AUTO 27008KT 10SM CLR 32/12 A3010 RMK AO1
KPVF 142015Z AUTO 32007KT 220V330 10SM CLR 31/12 A3010 RMK AO1
KPVF 141955Z AUTO 28008KT 10SM CLR 32/12 A3010 RMK AO1
KPVF 141935Z AUTO 30007KT 10SM CLR 31/12 A3011 RMK AO1
KPVF 141915Z AUTO 31006KT 10SM CLR 31/12 A3011 RMK AO1
KPVF 141855Z AUTO 30004KT 10SM CLR 31/12 A3011 RMK AO1
KPVF 141835Z AUTO 27003KT 10SM CLR 30/12 A3011 RMK AO1
KPVF 141815Z AUTO 34005KT 10SM CLR 30/12 A3011 RMK AO1
KPVF 141755Z AUTO 23003KT 10SM CLR 30/12 A3011 RMK AO1
KPVF 141735Z AUTO 30003KT 10SM CLR 30/11 A3012 RMK AO1
KPVF 141715Z AUTO 00000KT 10SM CLR 30/11 A3012 RMK AO1
KPVF 141655Z AUTO 28003KT 10SM CLR 29/11 A3012 RMK AO1
KPVF 141635Z AUTO 00000KT 10SM CLR 29/12 A3012 RMK AO1
KPVF 141615Z AUTO 33003KT 10SM CLR 29/11 A3012 RMK AO1
KPVF 141555Z AUTO 00000KT 10SM CLR 29/12 A3012 RMK AO1
KPVF 141535Z AUTO 04004KT 10SM CLR 28/13 A3011 RMK AO1
KPVF 141515Z AUTO 07005KT 10SM CLR 27/13 A3011 RMK AO1
KPVF 141455Z AUTO 07007KT 10SM CLR 25/12 A3011 RMK AO1
KPVF 141435Z AUTO 07008KT 10SM CLR 25/12 A3011 RMK AO1
KPVF 141415Z AUTO 07009KT 10SM CLR 24/12 A3011 RMK AO1
KPVF 141355Z AUTO 07009KT 10SM CLR 24/12 A3011 RMK AO1
KPVF 141335Z AUTO 07009KT 10SM CLR 24/12 A3011 RMK AO1
KPVF 141315Z AUTO 06010KT 10SM CLR 24/12 A3010 RMK AO1
KPVF 141255Z AUTO 07010KT 10SM CLR 24/12 A3010 RMK AO1
KPVF 141235Z AUTO 07008KT 10SM CLR 24/12 A3010 RMK AO1
KPVF 141215Z AUTO 07009KT 10SM CLR 24/12 A3010 RMK AO1
KPVF 141155Z AUTO 08008KT 10SM CLR 24/12 A3010 RMK AO1
KPVF 141135Z AUTO 07008KT 10SM 24/12 A3010 RMK AO1